sensor_id;sensor_type;location;lat;lon;timestamp;pressure;altitude;pressure_sealevel;temperature;humidity
25560;BME280;13450;49.374;8.584;2024-01-25T00:00:43;101773.16;;;9.27;100.00
25560;BME280;13450;49.374;8.584;2024-01-25T00:03:09;101765.34;;;9.25;100.00
25560;BME280;13450;49.374;8.584;2024-01-25T00:05:34;101763.34;;;9.27;100.00
25560;BME280;13450;49.374;8.584;2024-01-25T00:07:59;101755.72;;;9.33;100.00
25560;BME280;13450;49.374;8.584;2024-01-25T00:10:24;101747.03;;;9.31;100.00
25560;BME280;13450;49.374;8.584;2024-01-25T00:12:52;101754.34;;;9.28;100.00
25560;BME280;13450;49.374;8.584;2024-01-25T00:15:20;101753.50;;;9.28;100.00
25560;BME280;13450;49.374;8.584;2024-01-25T00:17:45;101746.63;;;9.25;100.00
25560;BME280;13450;49.374;8.584;2024-01-25T00:20:10;101748.31;;;9.26;100.00
25560;BME280;13450;49.374;8.584;2024-01-25T00:22:36;101737.63;;;9.26;100.00
25560;BME280;13450;49.374;8.584;2024-01-25T00:25:05;101743.97;;;9.25;100.00
25560;BME280;13450;49.374;8.584;2024-01-25T00:27:31;101747.59;;;9.24;100.00
25560;BME280;13450;49.374;8.584;2024-01-25T00:29:56;101745.91;;;9.23;100.00
25560;BME280;13450;49.374;8.584;2024-01-25T00:32:22;101742.56;;;9.21;100.00
25560;BME280;13450;49.374;8.584;2024-01-25T00:34:47;101745.22;;;9.21;100.00
25560;BME280;13450;49.374;8.584;2024-01-25T00:37:13;101749.84;;;9.19;100.00
25560;BME280;13450;49.374;8.584;2024-01-25T00:39:38;101743.53;;;9.20;100.00
25560;BME280;13450;49.374;8.584;2024-01-25T00:42:07;101733.84;;;9.19;100.00
25560;BME280;13450;49.374;8.584;2024-01-25T00:44:33;101740.84;;;9.20;100.00
25560;BME280;13450;49.374;8.584;2024-01-25T00:46:58;101731.88;;;9.21;100.00
25560;BME280;13450;49.374;8.584;2024-01-25T00:49:24;101746.19;;;9.20;100.00
25560;BME280;13450;49.374;8.584;2024-01-25T00:51:56;101740.56;;;9.23;100.00
25560;BME280;13450;49.374;8.584;2024-01-25T00:54:23;101743.97;;;9.25;100.00
25560;BME280;13450;49.374;8.584;2024-01-25T00:56:49;101747.31;;;9.27;100.00
25560;BME280;13450;49.374;8.584;2024-01-25T00:59:18;101747.59;;;9.24;100.00
25560;BME280;13450;49.374;8.584;2024-01-25T01:01:46;101741.56;;;9.22;100.00
25560;BME280;13450;49.374;8.584;2024-01-25T01:04:12;101737.50;;;9.18;100.00
25560;BME280;13450;49.374;8.584;2024-01-25T01:06:38;101743.13;;;9.15;100.00
25560;BME280;13450;49.374;8.584;2024-01-25T01:09:03;101730.75;;;9.14;100.00
25560;BME280;13450;49.374;8.584;2024-01-25T01:11:29;101750.44;;;9.13;100.00
25560;BME280;13450;49.374;8.584;2024-01-25T01:13:54;101740.59;;;9.13;100.00
25560;BME280;13450;49.374;8.584;2024-01-25T01:16:20;101733.88;;;9.09;100.00
25560;BME280;13450;49.374;8.584;2024-01-25T01:18:46;101740.31;;;9.07;100.00
25560;BME280;13450;49.374;8.584;2024-01-25T01:21:11;101743.16;;;9.05;100.00
25560;BME280;13450;49.374;8.584;2024-01-25T01:23:36;101747.66;;;9.05;100.00
25560;BME280;13450;49.374;8.584;2024-01-25T01:26:04;101742.31;;;9.05;100.00
25560;BME280;13450;49.374;8.584;2024-01-25T01:28:29;101749.31;;;9.06;100.00
25560;BME280;13450;49.374;8.584;2024-01-25T01:30:55;101740.31;;;9.07;100.00
25560;BME280;13450;49.374;8.584;2024-01-25T01:33:20;101753.97;;;9.03;100.00
25560;BME280;13450;49.374;8.584;2024-01-25T01:35:47;101754.97;;;9.02;100.00
25560;BME280;13450;49.374;8.584;2024-01-25T01:38:12;101748.06;;;9.00;100.00
25560;BME280;13450;49.374;8.584;2024-01-25T01:40:37;101747.38;;;8.98;100.00
25560;BME280;13450;49.374;8.584;2024-01-25T01:43:03;101745.69;;;8.97;100.00
25560;BME280;13450;49.374;8.584;2024-01-25T01:45:29;101746.09;;;8.92;100.00
25560;BME280;13450;49.374;8.584;2024-01-25T01:47:55;101746.09;;;8.92;100.00
25560;BME280;13450;49.374;8.584;2024-01-25T01:50:21;101743.44;;;8.92;100.00
25560;BME280;13450;49.374;8.584;2024-01-25T01:52:46;101741.75;;;8.91;100.00
25560;BME280;13450;49.374;8.584;2024-01-25T01:55:18;101745.41;;;8.90;100.00
25560;BME280;13450;49.374;8.584;2024-01-25T01:57:44;101752.72;;;8.88;100.00
25560;BME280;13450;49.374;8.584;2024-01-25T02:00:15;101753.72;;;8.87;100.00
25560;BME280;13450;49.374;8.584;2024-01-25T02:02:42;101750.34;;;8.85;100.00
25560;BME280;13450;49.374;8.584;2024-01-25T02:05:07;101751.16;;;8.85;100.00
25560;BME280;13450;49.374;8.584;2024-01-25T02:07:33;101745.97;;;8.84;100.00
25560;BME280;13450;49.374;8.584;2024-01-25T02:09:58;101744.28;;;8.83;100.00
25560;BME280;13450;49.374;8.584;2024-01-25T02:12:23;101758.34;;;8.85;100.00
25560;BME280;13450;49.374;8.584;2024-01-25T02:14:49;101749.63;;;8.83;100.00
25560;BME280;13450;49.374;8.584;2024-01-25T02:17:16;101751.47;;;8.82;100.00
25560;BME280;13450;49.374;8.584;2024-01-25T02:19:41;101756.94;;;8.81;100.00
25560;BME280;13450;49.374;8.584;2024-01-25T02:22:07;101753.56;;;8.79;100.00
25560;BME280;13450;49.374;8.584;2024-01-25T02:24:32;101748.53;;;8.75;100.00
25560;BME280;13450;49.374;8.584;2024-01-25T02:26:57;101745.13;;;8.73;100.00
25560;BME280;13450;49.374;8.584;2024-01-25T02:29:23;101745.28;;;8.72;100.00
25560;BME280;13450;49.374;8.584;2024-01-25T02:31:48;101748.81;;;8.72;100.00
25560;BME280;13450;49.374;8.584;2024-01-25T02:34:13;101738.13;;;8.72;100.00
25560;BME280;13450;49.374;8.584;2024-01-25T02:36:41;101740.06;;;8.70;100.00
25560;BME280;13450;49.374;8.584;2024-01-25T02:39:06;101742.06;;;8.68;100.00
25560;BME280;13450;49.374;8.584;2024-01-25T02:41:32;101742.19;;;8.67;100.00
25560;BME280;13450;49.374;8.584;2024-01-25T02:44:00;101739.78;;;8.63;100.00
25560;BME280;13450;49.374;8.584;2024-01-25T02:46:26;101747.25;;;8.60;100.00
25560;BME280;13450;49.374;8.584;2024-01-25T02:48:54;101749.91;;;8.60;100.00
25560;BME280;13450;49.374;8.584;2024-01-25T02:51:19;101748.22;;;8.59;100.00
25560;BME280;13450;49.374;8.584;2024-01-25T02:53:44;101740.38;;;8.57;100.00
25560;BME280;13450;49.374;8.584;2024-01-25T02:56:09;101734.16;;;8.57;100.00
25560;BME280;13450;49.374;8.584;2024-01-25T02:58:35;101747.38;;;8.58;100.00
25560;BME280;13450;49.374;8.584;2024-01-25T03:01:00;101742.34;;;8.55;100.00
25560;BME280;13450;49.374;8.584;2024-01-25T03:03:25;101748.50;;;8.56;100.00
25560;BME280;13450;49.374;8.584;2024-01-25T03:05:53;101757.50;;;8.55;100.00
25560;BME280;13450;49.374;8.584;2024-01-25T03:08:19;101751.31;;;8.54;100.00
25560;BME280;13450;49.374;8.584;2024-01-25T03:10:45;101740.63;;;8.54;100.00
25560;BME280;13450;49.374;8.584;2024-01-25T03:13:11;101748.91;;;8.51;100.00
25560;BME280;13450;49.374;8.584;2024-01-25T03:15:38;101745.66;;;8.47;100.00
25560;BME280;13450;49.374;8.584;2024-01-25T03:18:04;101745.66;;;8.47;100.00
25560;BME280;13450;49.374;8.584;2024-01-25T03:20:29;101746.22;;;8.41;100.00
25560;BME280;13450;49.374;8.584;2024-01-25T03:22:54;101751.00;;;8.37;100.00
25560;BME280;13450;49.374;8.584;2024-01-25T03:25:20;101747.06;;;8.32;100.00
25560;BME280;13450;49.374;8.584;2024-01-25T03:27:46;101753.50;;;8.29;100.00
25560;BME280;13450;49.374;8.584;2024-01-25T03:30:14;101752.09;;;8.25;100.00
25560;BME280;13450;49.374;8.584;2024-01-25T03:32:42;101751.53;;;8.21;100.00
25560;BME280;13450;49.374;8.584;2024-01-25T03:35:10;101750.38;;;8.14;100.00
25560;BME280;13450;49.374;8.584;2024-01-25T03:37:37;101762.44;;;8.08;100.00
25560;BME280;13450;49.374;8.584;2024-01-25T03:40:03;101765.78;;;8.01;100.00
25560;BME280;13450;49.374;8.584;2024-01-25T03:42:29;101766.34;;;7.94;100.00
25560;BME280;13450;49.374;8.584;2024-01-25T03:44:54;101759.16;;;7.85;100.00
25560;BME280;13450;49.374;8.584;2024-01-25T03:47:19;101760.66;;;7.78;100.00
25560;BME280;13450;49.374;8.584;2024-01-25T03:49:47;101770.59;;;7.76;100.00
25560;BME280;13450;49.374;8.584;2024-01-25T03:52:12;101774.66;;;7.70;100.00
25560;BME280;13450;49.374;8.584;2024-01-25T03:54:42;101772.38;;;7.65;100.00
25560;BME280;13450;49.374;8.584;2024-01-25T03:57:07;101786.81;;;7.63;100.00
25560;BME280;13450;49.374;8.584;2024-01-25T03:59:33;101782.16;;;7.55;100.00
25560;BME280;13450;49.374;8.584;2024-01-25T04:01:58;101781.44;;;7.53;100.00
25560;BME280;13450;49.374;8.584;2024-01-25T04:04:23;101783.78;;;7.46;100.00
25560;BME280;13450;49.374;8.584;2024-01-25T04:06:49;101785.00;;;7.42;100.00
25560;BME280;13450;49.374;8.584;2024-01-25T04:09:14;101788.78;;;7.39;100.00
25560;BME280;13450;49.374;8.584;2024-01-25T04:11:42;101786.28;;;7.38;100.00
25560;BME280;13450;49.374;8.584;2024-01-25T04:14:08;101794.28;;;7.38;100.00
25560;BME280;13450;49.374;8.584;2024-01-25T04:16:35;101810.63;;;7.33;100.00
25560;BME280;13450;49.374;8.584;2024-01-25T04:19:00;101805.84;;;7.27;100.00
25560;BME280;13450;49.374;8.584;2024-01-25T04:21:26;101809.00;;;7.20;100.00
25560;BME280;13450;49.374;8.584;2024-01-25T04:23:52;101805.19;;;7.13;100.00
25560;BME280;13450;49.374;8.584;2024-01-25T04:26:22;101812.69;;;7.08;100.00
25560;BME280;13450;49.374;8.584;2024-01-25T04:28:47;101808.84;;;7.01;100.00
25560;BME280;13450;49.374;8.584;2024-01-25T04:31:12;101814.56;;;6.96;100.00
25560;BME280;13450;49.374;8.584;2024-01-25T04:33:38;101810.84;;;6.87;100.00
25560;BME280;13450;49.374;8.584;2024-01-25T04:36:06;101825.63;;;6.80;100.00
25560;BME280;13450;49.374;8.584;2024-01-25T04:38:34;101819.13;;;6.73;100.00
25560;BME280;13450;49.374;8.584;2024-01-25T04:40:59;101824.09;;;6.66;100.00
25560;BME280;13450;49.374;8.584;2024-01-25T04:43:25;101833.44;;;6.60;100.00
25560;BME280;13450;49.374;8.584;2024-01-25T04:45:50;101829.09;;;6.59;100.00
25560;BME280;13450;49.374;8.584;2024-01-25T04:48:15;101832.44;;;6.61;100.00
25560;BME280;13450;49.374;8.584;2024-01-25T04:50:40;101834.41;;;6.59;100.00
25560;BME280;13450;49.374;8.584;2024-01-25T04:53:06;101835.63;;;6.55;100.00
25560;BME280;13450;49.374;8.584;2024-01-25T04:55:34;101834.19;;;6.51;100.00
25560;BME280;13450;49.374;8.584;2024-01-25T04:57:59;101831.25;;;6.54;100.00
25560;BME280;13450;49.374;8.584;2024-01-25T05:00:26;101848.69;;;6.47;100.00
25560;BME280;13450;49.374;8.584;2024-01-25T05:02:51;101849.91;;;6.43;100.00
25560;BME280;13450;49.374;8.584;2024-01-25T05:05:17;101852.09;;;6.37;100.00
25560;BME280;13450;49.374;8.584;2024-01-25T05:07:42;101862.25;;;6.32;100.00
25560;BME280;13450;49.374;8.584;2024-01-25T05:10:07;101865.38;;;6.26;100.00
25560;BME280;13450;49.374;8.584;2024-01-25T05:12:35;101860.56;;;6.20;100.00
25560;BME280;13450;49.374;8.584;2024-01-25T05:15:00;101868.06;;;6.14;100.00
25560;BME280;13450;49.374;8.584;2024-01-25T05:17:26;101871.91;;;6.10;100.00
25560;BME280;13450;49.374;8.584;2024-01-25T05:19:51;101877.22;;;6.10;100.00
25560;BME280;13450;49.374;8.584;2024-01-25T05:22:16;101878.91;;;6.11;100.00
25560;BME280;13450;49.374;8.584;2024-01-25T05:24:42;101882.28;;;6.13;100.00
25560;BME280;13450;49.374;8.584;2024-01-25T05:27:09;101888.13;;;6.19;100.00
25560;BME280;13450;49.374;8.584;2024-01-25T05:29:37;101891.38;;;6.22;100.00
25560;BME280;13450;49.374;8.584;2024-01-25T05:32:02;101876.00;;;6.26;100.00
25560;BME280;13450;49.374;8.584;2024-01-25T05:34:28;101877.22;;;6.33;100.00
25560;BME280;13450;49.374;8.584;2024-01-25T05:36:55;101871.41;;;6.39;100.00
25560;BME280;13450;49.374;8.584;2024-01-25T05:39:21;101862.72;;;6.37;100.00
25560;BME280;13450;49.374;8.584;2024-01-25T05:41:50;101866.59;;;6.33;100.00
25560;BME280;13450;49.374;8.584;2024-01-25T05:44:16;101873.13;;;6.29;100.00
25560;BME280;13450;49.374;8.584;2024-01-25T05:46:41;101876.28;;;6.23;100.00
25560;BME280;13450;49.374;8.584;2024-01-25T05:49:06;101875.78;;;6.18;100.00
25560;BME280;13450;49.374;8.584;2024-01-25T05:51:31;101872.63;;;6.12;100.00
25560;BME280;13450;49.374;8.584;2024-01-25T05:53:57;101876.97;;;6.13;100.00
25560;BME280;13450;49.374;8.584;2024-01-25T05:56:22;101868.53;;;6.08;100.00
25560;BME280;13450;49.374;8.584;2024-01-25T05:58:47;101864.28;;;6.06;100.00
25560;BME280;13450;49.374;8.584;2024-01-25T06:01:12;101861.63;;;6.06;100.00
25560;BME280;13450;49.374;8.584;2024-01-25T06:03:38;101857.41;;;6.03;100.00
25560;BME280;13450;49.374;8.584;2024-01-25T06:06:03;101856.66;;;6.01;100.00
25560;BME280;13450;49.374;8.584;2024-01-25T06:08:31;101856.91;;;5.98;100.00
25560;BME280;13450;49.374;8.584;2024-01-25T06:10:56;101858.59;;;5.99;100.00
25560;BME280;13450;49.374;8.584;2024-01-25T06:13:26;101853.03;;;6.02;100.00
25560;BME280;13450;49.374;8.584;2024-01-25T06:15:51;101854.75;;;6.03;100.00
25560;BME280;13450;49.374;8.584;2024-01-25T06:18:17;101855.81;;;6.00;100.00
25560;BME280;13450;49.374;8.584;2024-01-25T06:20:42;101858.84;;;5.96;100.00
25560;BME280;13450;49.374;8.584;2024-01-25T06:23:09;101858.59;;;5.99;100.00
25560;BME280;13450;49.374;8.584;2024-01-25T06:25:34;101864.63;;;6.01;100.00
25560;BME280;13450;49.374;8.584;2024-01-25T06:28:01;101865.59;;;6.00;100.00
25560;BME280;13450;49.374;8.584;2024-01-25T06:30:27;101875.03;;;6.04;100.00
25560;BME280;13450;49.374;8.584;2024-01-25T06:32:54;101879.41;;;6.05;100.00
25560;BME280;13450;49.374;8.584;2024-01-25T06:35:21;101870.91;;;6.00;100.00
25560;BME280;13450;49.374;8.584;2024-01-25T06:37:47;101876.88;;;6.04;100.00
25560;BME280;13450;49.374;8.584;2024-01-25T06:40:12;101881.09;;;6.06;100.00
25560;BME280;13450;49.374;8.584;2024-01-25T06:42:37;101881.53;;;6.00;100.00
25560;BME280;13450;49.374;8.584;2024-01-25T06:45:03;101881.78;;;5.97;100.00
25560;BME280;13450;49.374;8.584;2024-01-25T06:47:28;101889.50;;;5.88;100.00
25560;BME280;13450;49.374;8.584;2024-01-25T06:49:54;101892.38;;;5.85;100.00
25560;BME280;13450;49.374;8.584;2024-01-25T06:52:19;101904.22;;;5.81;100.00
25560;BME280;13450;49.374;8.584;2024-01-25T06:54:47;101902.91;;;5.75;100.00
25560;BME280;13450;49.374;8.584;2024-01-25T06:57:12;101894.28;;;5.72;100.00
25560;BME280;13450;49.374;8.584;2024-01-25T06:59:39;101897.31;;;5.67;100.00
25560;BME280;13450;49.374;8.584;2024-01-25T07:02:05;101898.50;;;5.63;100.00
25560;BME280;13450;49.374;8.584;2024-01-25T07:04:30;101893.31;;;5.61;100.00
25560;BME280;13450;49.374;8.584;2024-01-25T07:06:55;101894.03;;;5.63;100.00
25560;BME280;13450;49.374;8.584;2024-01-25T07:09:21;101888.00;;;5.61;100.00
25560;BME280;13450;49.374;8.584;2024-01-25T07:11:46;101889.91;;;5.59;100.00
25560;BME280;13450;49.374;8.584;2024-01-25T07:14:11;101892.44;;;5.61;100.00
25560;BME280;13450;49.374;8.584;2024-01-25T07:16:37;101892.06;;;5.54;100.00
25560;BME280;13450;49.374;8.584;2024-01-25T07:19:02;101899.31;;;5.52;100.00
25560;BME280;13450;49.374;8.584;2024-01-25T07:21:28;101903.78;;;5.52;100.00
25560;BME280;13450;49.374;8.584;2024-01-25T07:23:53;101913.56;;;5.51;100.00
25560;BME280;13450;49.374;8.584;2024-01-25T07:26:18;101918.03;;;5.50;100.00
25560;BME280;13450;49.374;8.584;2024-01-25T07:28:44;101919.97;;;5.48;100.00
25560;BME280;13450;49.374;8.584;2024-01-25T07:31:11;101920.19;;;5.45;100.00
25560;BME280;13450;49.374;8.584;2024-01-25T07:33:36;101919.31;;;5.45;100.00
25560;BME280;13450;49.374;8.584;2024-01-25T07:36:02;101920.19;;;5.45;100.00
25560;BME280;13450;49.374;8.584;2024-01-25T07:38:28;101923.81;;;5.44;100.00
25560;BME280;13450;49.374;8.584;2024-01-25T07:40:53;101928.75;;;5.49;100.00
25560;BME280;13450;49.374;8.584;2024-01-25T07:43:18;101916.56;;;5.46;100.00
25560;BME280;13450;49.374;8.584;2024-01-25T07:45:43;101926.97;;;5.49;100.00
25560;BME280;13450;49.374;8.584;2024-01-25T07:48:09;101929.72;;;5.48;100.00
25560;BME280;13450;49.374;8.584;2024-01-25T07:50:34;101926.84;;;5.51;100.00
25560;BME280;13450;49.374;8.584;2024-01-25T07:52:59;101921.53;;;5.51;100.00
25560;BME280;13450;49.374;8.584;2024-01-25T07:55:26;101926.38;;;5.57;100.00
25560;BME280;13450;49.374;8.584;2024-01-25T07:57:52;101933.88;;;5.63;100.00
25560;BME280;13450;49.374;8.584;2024-01-25T08:00:17;101933.66;;;5.67;100.00
25560;BME280;13450;49.374;8.584;2024-01-25T08:02:42;101924.59;;;5.69;100.00
25560;BME280;13450;49.374;8.584;2024-01-25T08:05:10;101924.25;;;5.74;100.00
25560;BME280;13450;49.374;8.584;2024-01-25T08:07:36;101922.53;;;5.73;100.00
25560;BME280;13450;49.374;8.584;2024-01-25T08:10:03;101927.41;;;5.79;100.00
25560;BME280;13450;49.374;8.584;2024-01-25T08:12:31;101929.47;;;5.87;100.00
25560;BME280;13450;49.374;8.584;2024-01-25T08:14:56;101928.16;;;5.93;100.00
25560;BME280;13450;49.374;8.584;2024-01-25T08:17:22;101929.84;;;5.94;100.00
25560;BME280;13450;49.374;8.584;2024-01-25T08:19:47;101930.59;;;5.96;100.00
25560;BME280;13450;49.374;8.584;2024-01-25T08:22:15;101935.75;;;5.97;100.00
25560;BME280;13450;49.374;8.584;2024-01-25T08:24:42;101933.75;;;6.01;100.00
25560;BME280;13450;49.374;8.584;2024-01-25T08:27:11;101941.50;;;6.04;100.00
25560;BME280;13450;49.374;8.584;2024-01-25T08:29:36;101941.25;;;6.07;100.00
25560;BME280;13450;49.374;8.584;2024-01-25T08:32:02;101932.19;;;6.10;100.00
25560;BME280;13450;49.374;8.584;2024-01-25T08:34:28;101936.91;;;6.18;100.00
25560;BME280;13450;49.374;8.584;2024-01-25T08:36:53;101931.25;;;6.22;100.00
25560;BME280;13450;49.374;8.584;2024-01-25T08:39:19;101934.28;;;6.29;100.00
25560;BME280;13450;49.374;8.584;2024-01-25T08:41:46;101932.84;;;6.36;100.00
25560;BME280;13450;49.374;8.584;2024-01-25T08:44:14;101932.94;;;6.46;100.00
25560;BME280;13450;49.374;8.584;2024-01-25T08:46:39;101942.97;;;6.54;100.00
25560;BME280;13450;49.374;8.584;2024-01-25T08:49:07;101939.59;;;6.63;100.00
25560;BME280;13450;49.374;8.584;2024-01-25T08:51:37;101945.13;;;6.72;100.00
25560;BME280;13450;49.374;8.584;2024-01-25T08:54:03;101939.34;;;6.78;100.00
25560;BME280;13450;49.374;8.584;2024-01-25T08:56:29;101943.91;;;6.87;100.00
25560;BME280;13450;49.374;8.584;2024-01-25T08:58:56;101945.09;;;6.94;100.00
25560;BME280;13450;49.374;8.584;2024-01-25T09:01:24;101950.66;;;7.03;100.00
25560;BME280;13450;49.374;8.584;2024-01-25T09:03:52;101955.09;;;7.14;100.00
25560;BME280;13450;49.374;8.584;2024-01-25T09:06:19;101951.69;;;7.23;100.00
25560;BME280;13450;49.374;8.584;2024-01-25T09:08:47;101951.06;;;7.31;100.00
25560;BME280;13450;49.374;8.584;2024-01-25T09:11:12;101949.34;;;7.41;100.00
25560;BME280;13450;49.374;8.584;2024-01-25T09:13:38;101951.22;;;7.51;100.00
25560;BME280;13450;49.374;8.584;2024-01-25T09:16:09;101953.81;;;7.62;100.00
25560;BME280;13450;49.374;8.584;2024-01-25T09:18:35;101945.09;;;7.71;100.00
25560;BME280;13450;49.374;8.584;2024-01-25T09:21:02;101947.78;;;7.81;100.00
25560;BME280;13450;49.374;8.584;2024-01-25T09:23:30;101944.22;;;7.92;100.00
25560;BME280;13450;49.374;8.584;2024-01-25T09:25:55;101955.78;;;8.03;100.00
25560;BME280;13450;49.374;8.584;2024-01-25T09:28:21;101950.38;;;8.14;100.00
25560;BME280;13450;49.374;8.584;2024-01-25T09:30:46;101958.16;;;8.27;100.00
25560;BME280;13450;49.374;8.584;2024-01-25T09:33:14;101952.63;;;8.40;100.00
25560;BME280;13450;49.374;8.584;2024-01-25T09:35:40;101956.91;;;8.53;100.00
25560;BME280;13450;49.374;8.584;2024-01-25T09:38:05;101953.44;;;8.62;100.00
25560;BME280;13450;49.374;8.584;2024-01-25T09:40:30;101956.44;;;8.79;100.00
25560;BME280;13450;49.374;8.584;2024-01-25T09:42:57;101954.66;;;8.89;100.00
25560;BME280;13450;49.374;8.584;2024-01-25T09:45:23;101952.56;;;9.02;100.00
25560;BME280;13450;49.374;8.584;2024-01-25T09:47:49;101961.31;;;9.14;100.00
25560;BME280;13450;49.374;8.584;2024-01-25T09:50:14;101963.56;;;9.29;100.00
25560;BME280;13450;49.374;8.584;2024-01-25T09:52:43;101961.88;;;9.38;100.00
25560;BME280;13450;49.374;8.584;2024-01-25T09:55:11;101962.44;;;9.51;100.00
25560;BME280;13450;49.374;8.584;2024-01-25T09:57:39;101966.94;;;9.61;100.00
25560;BME280;13450;49.374;8.584;2024-01-25T10:00:06;101965.81;;;9.73;100.00
25560;BME280;13450;49.374;8.584;2024-01-25T10:02:37;101970.88;;;9.76;100.00
25560;BME280;13450;49.374;8.584;2024-01-25T10:05:02;101961.28;;;9.93;100.00
25560;BME280;13450;49.374;8.584;2024-01-25T10:07:41;101957.78;;;9.93;100.00
25560;BME280;13450;49.374;8.584;2024-01-25T10:10:07;101961.13;;;9.95;100.00
25560;BME280;13450;49.374;8.584;2024-01-25T10:12:36;101967.75;;;10.01;100.00
25560;BME280;13450;49.374;8.584;2024-01-25T10:15:03;101964.47;;;10.07;100.00
25560;BME280;13450;49.374;8.584;2024-01-25T10:17:28;101971.63;;;10.16;100.00
25560;BME280;13450;49.374;8.584;2024-01-25T10:19:54;101964.59;;;10.25;100.00
25560;BME280;13450;49.374;8.584;2024-01-25T10:22:20;101978.72;;;10.55;100.00
25560;BME280;13450;49.374;8.584;2024-01-25T10:24:48;101970.91;;;10.72;100.00
25560;BME280;13450;49.374;8.584;2024-01-25T10:27:15;101973.41;;;11.02;100.00
25560;BME280;13450;49.374;8.584;2024-01-25T10:29:50;101975.56;;;11.16;100.00
25560;BME280;13450;49.374;8.584;2024-01-25T10:32:16;101977.91;;;11.29;100.00
25560;BME280;13450;49.374;8.584;2024-01-25T10:34:45;101974.38;;;11.47;100.00
25560;BME280;13450;49.374;8.584;2024-01-25T10:37:13;101974.78;;;12.50;100.00
25560;BME280;13450;49.374;8.584;2024-01-25T10:39:39;101979.91;;;14.12;94.92
25560;BME280;13450;49.374;8.584;2024-01-25T10:42:06;101984.41;;;15.64;86.41
25560;BME280;13450;49.374;8.584;2024-01-25T10:44:31;101981.63;;;16.71;77.95
25560;BME280;13450;49.374;8.584;2024-01-25T10:46:57;101987.50;;;16.59;71.71
25560;BME280;13450;49.374;8.584;2024-01-25T10:49:24;101986.22;;;15.87;70.00
25560;BME280;13450;49.374;8.584;2024-01-25T10:51:52;101977.34;;;16.01;73.80
25560;BME280;13450;49.374;8.584;2024-01-25T10:54:18;101970.00;;;16.10;68.56
25560;BME280;13450;49.374;8.584;2024-01-25T10:56:46;101972.13;;;16.45;68.98
25560;BME280;13450;49.374;8.584;2024-01-25T10:59:12;101975.34;;;16.85;62.47
25560;BME280;13450;49.374;8.584;2024-01-25T11:01:38;101966.78;;;17.62;59.33
25560;BME280;13450;49.374;8.584;2024-01-25T11:04:12;101977.78;;;18.47;56.05
25560;BME280;13450;49.374;8.584;2024-01-25T11:06:38;101972.41;;;18.53;54.04
25560;BME280;13450;49.374;8.584;2024-01-25T11:09:06;101970.88;;;18.37;53.31
25560;BME280;13450;49.374;8.584;2024-01-25T11:11:35;101970.13;;;19.19;51.62
25560;BME280;13450;49.374;8.584;2024-01-25T11:14:03;101968.91;;;18.66;55.50
25560;BME280;13450;49.374;8.584;2024-01-25T11:16:30;101964.72;;;18.22;52.85
25560;BME280;13450;49.374;8.584;2024-01-25T11:18:57;101966.13;;;17.82;54.18
25560;BME280;13450;49.374;8.584;2024-01-25T11:24:20;101957.13;;;18.39;49.61
25560;BME280;13450;49.374;8.584;2024-01-25T11:26:47;101953.19;;;18.48;50.11
25560;BME280;13450;49.374;8.584;2024-01-25T11:29:13;101953.69;;;19.41;47.32
25560;BME280;13450;49.374;8.584;2024-01-25T11:31:44;101951.13;;;19.94;47.42
25560;BME280;13450;49.374;8.584;2024-01-25T11:34:12;101960.34;;;19.39;46.24
25560;BME280;13450;49.374;8.584;2024-01-25T11:36:38;101949.31;;;18.64;48.27
25560;BME280;13450;49.374;8.584;2024-01-25T11:39:04;101949.69;;;18.61;48.82
25560;BME280;13450;49.374;8.584;2024-01-25T11:41:31;101943.03;;;19.33;47.09
25560;BME280;13450;49.374;8.584;2024-01-25T11:43:57;101937.97;;;19.97;44.99
25560;BME280;13450;49.374;8.584;2024-01-25T11:46:23;101946.84;;;21.23;43.98
25560;BME280;13450;49.374;8.584;2024-01-25T11:48:48;101948.22;;;20.68;43.90
25560;BME280;13450;49.374;8.584;2024-01-25T11:51:16;101944.91;;;20.52;42.61
25560;BME280;13450;49.374;8.584;2024-01-25T11:53:41;101935.09;;;21.29;41.87
25560;BME280;13450;49.374;8.584;2024-01-25T11:56:12;101933.16;;;22.25;40.85
25560;BME280;13450;49.374;8.584;2024-01-25T11:58:40;101920.56;;;22.43;38.86
25560;BME280;13450;49.374;8.584;2024-01-25T12:01:08;101918.19;;;22.16;38.61
25560;BME280;13450;49.374;8.584;2024-01-25T12:03:35;101918.00;;;22.29;39.45
25560;BME280;13450;49.374;8.584;2024-01-25T12:06:02;101914.81;;;20.47;41.52
25560;BME280;13450;49.374;8.584;2024-01-25T12:08:29;101915.66;;;19.68;43.36
25560;BME280;13450;49.374;8.584;2024-01-25T12:11:08;101907.25;;;18.95;45.07
25560;BME280;13450;49.374;8.584;2024-01-25T12:13:34;101892.06;;;17.39;48.89
25560;BME280;13450;49.374;8.584;2024-01-25T12:16:01;101897.94;;;16.99;51.53
25560;BME280;13450;49.374;8.584;2024-01-25T12:18:28;101895.44;;;18.06;54.02
25560;BME280;13450;49.374;8.584;2024-01-25T12:20:59;101892.91;;;19.63;45.85
25560;BME280;13450;49.374;8.584;2024-01-25T12:23:36;101889.19;;;21.59;42.22
25560;BME280;13450;49.374;8.584;2024-01-25T12:26:09;101882.13;;;23.06;39.25
25560;BME280;13450;49.374;8.584;2024-01-25T12:28:36;101884.47;;;23.69;37.65
25560;BME280;13450;49.374;8.584;2024-01-25T12:31:07;101871.47;;;25.21;33.95
25560;BME280;13450;49.374;8.584;2024-01-25T12:33:35;101870.38;;;23.05;36.03
25560;BME280;13450;49.374;8.584;2024-01-25T12:36:05;101871.44;;;21.93;38.60
25560;BME280;13450;49.374;8.584;2024-01-25T12:38:31;101852.44;;;22.05;37.64
25560;BME280;13450;49.374;8.584;2024-01-25T12:40:59;101857.56;;;22.94;37.17
25560;BME280;13450;49.374;8.584;2024-01-25T12:43:24;101844.81;;;22.76;36.50
25560;BME280;13450;49.374;8.584;2024-01-25T12:45:50;101832.16;;;22.20;36.82
25560;BME280;13450;49.374;8.584;2024-01-25T12:48:15;101842.66;;;23.56;35.82